createdAt,value
2022-09-18T00:01:22.329Z,74.49
2022-09-18T00:03:48.907Z,74.65
2022-09-18T00:06:19.399Z,74.87
2022-09-18T00:08:47.999Z,74.98
2022-09-18T00:11:15.920Z,75.13
2022-09-18T00:13:42.935Z,75.17
2022-09-18T00:16:12.294Z,75.17
2022-09-18T00:18:39.793Z,75.19
2022-09-18T00:21:15.812Z,75.28
2022-09-18T00:23:42.925Z,75.39
2022-09-18T00:26:11.614Z,75.44
2022-09-18T00:28:38.361Z,75.49
2022-09-18T00:31:15.621Z,75.53
2022-09-18T00:33:42.565Z,75.61
2022-09-18T00:36:13.686Z,75.75
2022-09-18T00:38:41.355Z,75.89
2022-09-18T00:41:23.558Z,75.98
2022-09-18T00:44:00.880Z,76.10
2022-09-18T00:46:36.174Z,76.18
2022-09-18T00:49:20.929Z,76.31
2022-09-18T00:51:49.756Z,76.39
2022-09-18T00:54:32.799Z,76.50
2022-09-18T00:57:02.212Z,76.56
2022-09-18T00:59:31.220Z,76.57
2022-09-18T01:01:59.344Z,76.56
2022-09-18T01:04:27.310Z,76.57
2022-09-18T01:06:56.582Z,76.54
2022-09-18T01:09:53.611Z,76.54
2022-09-18T01:12:43.126Z,76.49
2022-09-18T01:15:20.209Z,76.37
2022-09-18T01:18:06.403Z,76.34
2022-09-18T01:20:58.914Z,76.38
2022-09-18T01:23:51.758Z,76.47
2022-09-18T01:26:28.510Z,76.49
2022-09-18T01:29:17.996Z,76.47
2022-09-18T01:31:53.439Z,76.49
2022-09-18T01:34:25.748Z,76.57
2022-09-18T01:37:08.130Z,76.68
2022-09-18T01:39:43.588Z,76.81
2022-09-18T01:42:11.181Z,76.93
2022-09-18T01:44:40.213Z,77.02
2022-09-18T01:47:11.167Z,77.10
2022-09-18T01:49:42.515Z,77.20
2022-09-18T01:52:31.089Z,77.25
2022-09-18T01:54:58.315Z,77.27
2022-09-18T01:57:52.596Z,77.41
2022-09-18T02:00:19.690Z,77.66
2022-09-18T02:02:58.374Z,77.83
2022-09-18T02:05:33.247Z,77.94
2022-09-18T02:08:20.047Z,78.04
2022-09-18T02:11:00.510Z,78.14
2022-09-18T02:13:34.076Z,78.20
2022-09-18T02:16:06.236Z,78.34
2022-09-18T02:18:40.332Z,78.44
2022-09-18T02:21:10.069Z,78.39
2022-09-18T02:23:38.650Z,78.44
2022-09-18T02:26:06.733Z,78.59
2022-09-18T02:28:34.323Z,78.77
2022-09-18T02:31:03.971Z,79.04
2022-09-18T02:33:34.893Z,79.35
2022-09-18T02:36:39.206Z,79.62
2022-09-18T02:39:34.446Z,79.94
2022-09-18T02:42:30.103Z,80.25
2022-09-18T02:45:03.691Z,80.48
2022-09-18T02:48:19.654Z,80.61
2022-09-18T02:51:35.861Z,80.68
2022-09-18T02:54:11.492Z,80.80
2022-09-18T02:56:52.752Z,80.99
2022-09-18T02:59:36.603Z,81.19
2022-09-18T03:02:03.854Z,81.36
2022-09-18T03:04:30.474Z,81.52
2022-09-18T03:06:57.538Z,81.63
2022-09-18T03:09:24.289Z,81.70
2022-09-18T03:11:51.190Z,81.73
2022-09-18T03:14:17.782Z,81.69
2022-09-18T03:16:44.238Z,81.80
2022-09-18T03:19:11.543Z,81.87
2022-09-18T03:21:38.575Z,81.82
2022-09-18T03:24:05.634Z,81.81
2022-09-18T03:26:32.099Z,81.75
2022-09-18T03:28:58.649Z,81.62
2022-09-18T03:31:25.391Z,81.61
2022-09-18T03:33:51.912Z,81.68
2022-09-18T03:36:18.328Z,81.73
2022-09-18T03:38:44.669Z,81.76
2022-09-18T03:41:11.090Z,81.81
2022-09-18T03:43:37.464Z,81.89
2022-09-18T03:46:03.983Z,81.99
2022-09-18T03:48:30.395Z,82.12
2022-09-18T03:50:56.730Z,82.26
2022-09-18T03:53:23.266Z,82.34
2022-09-18T03:55:50.681Z,82.40
2022-09-18T03:58:17.100Z,82.43
2022-09-18T04:00:44.512Z,82.38
2022-09-18T04:03:10.973Z,82.40
2022-09-18T04:05:37.356Z,82.43
2022-09-18T04:08:04.723Z,82.47
2022-09-18T04:10:35.359Z,82.49
2022-09-18T04:13:02.398Z,82.46
2022-09-18T04:15:28.852Z,82.43
2022-09-18T04:17:55.315Z,82.41
2022-09-18T04:20:21.921Z,82.40
2022-09-18T04:22:48.356Z,82.43
2022-09-18T04:25:14.972Z,82.43
2022-09-18T04:27:41.610Z,82.43
2022-09-18T04:30:09.162Z,82.43
2022-09-18T04:32:35.556Z,82.43
2022-09-18T04:35:01.966Z,82.42
2022-09-18T04:37:28.548Z,82.42
2022-09-18T04:39:54.877Z,82.41
2022-09-18T04:42:21.259Z,82.37
2022-09-18T04:44:47.768Z,82.34
2022-09-18T04:47:14.310Z,82.29
2022-09-18T04:49:40.793Z,82.22
2022-09-18T04:52:07.289Z,82.13
2022-09-18T04:54:33.960Z,82.10
2022-09-18T04:57:00.385Z,82.14
2022-09-18T04:59:27.066Z,82.17
2022-09-18T05:01:53.468Z,82.24
2022-09-18T05:04:20.037Z,82.31
2022-09-18T05:06:46.513Z,82.41
2022-09-18T05:09:13.073Z,82.55
2022-09-18T05:11:39.515Z,82.68
2022-09-18T05:14:05.902Z,82.80
2022-09-18T05:16:34.565Z,82.86
2022-09-18T05:19:00.910Z,82.89
2022-09-18T05:21:27.404Z,82.98
2022-09-18T05:23:53.727Z,83.04
2022-09-18T05:26:20.092Z,83.18
2022-09-18T05:28:50.240Z,83.29
2022-09-18T05:31:16.751Z,83.39
2022-09-18T05:33:43.488Z,83.54
2022-09-18T05:36:10.290Z,83.61
2022-09-18T05:38:36.677Z,83.64
2022-09-18T05:41:03.677Z,83.69
2022-09-18T05:43:30.536Z,83.71
2022-09-18T05:45:57.329Z,83.71
2022-09-18T05:48:23.691Z,83.75
2022-09-18T05:50:51.367Z,83.75
2022-09-18T05:53:20.637Z,83.78
2022-09-18T05:55:47.991Z,83.76
2022-09-18T05:58:17.179Z,83.76
2022-09-18T06:03:51.187Z,83.68
2022-09-18T06:06:17.845Z,83.70
2022-09-18T06:08:44.180Z,83.67
2022-09-18T06:11:10.581Z,83.50
2022-09-18T06:13:37.249Z,83.28
2022-09-18T06:16:03.825Z,83.05
2022-09-18T06:18:30.605Z,82.76
2022-09-18T06:20:58.572Z,82.60
2022-09-18T06:23:27.949Z,82.40
2022-09-18T06:26:04.067Z,82.08
2022-09-18T06:28:31.835Z,81.92
2022-09-18T06:30:59.791Z,81.81
2022-09-18T06:33:28.671Z,81.70
2022-09-18T06:35:55.543Z,81.58
2022-09-18T06:38:21.977Z,81.50
2022-09-18T06:40:50.329Z,81.51
2022-09-18T06:43:17.740Z,81.90
2022-09-18T06:45:51.224Z,82.06
2022-09-18T06:48:17.681Z,82.02
2022-09-18T06:50:44.141Z,81.67
2022-09-18T06:53:12.781Z,81.44
2022-09-18T06:55:39.318Z,81.34
2022-09-18T06:58:05.785Z,81.15
2022-09-18T07:00:32.553Z,80.98
2022-09-18T07:03:01.187Z,80.95
2022-09-18T07:05:30.459Z,80.62
2022-09-18T07:07:57.366Z,80.46
2022-09-18T07:10:24.620Z,80.21
2022-09-18T07:12:58.936Z,80.04
2022-09-18T07:15:26.596Z,79.84
2022-09-18T07:17:58.599Z,79.47
2022-09-18T07:20:26.124Z,78.86
2022-09-18T07:22:55.221Z,77.84
2022-09-18T07:25:22.272Z,77.46
2022-09-18T07:27:49.441Z,76.98
2022-09-18T07:30:17.235Z,76.79
2022-09-18T07:32:43.851Z,76.68
2022-09-18T07:35:11.045Z,76.39
2022-09-18T07:37:38.518Z,76.19
2022-09-18T07:40:09.152Z,76.47
2022-09-18T07:42:35.995Z,76.20
2022-09-18T07:45:03.063Z,76.22
2022-09-18T07:47:29.732Z,76.18
2022-09-18T07:49:56.207Z,76.03
2022-09-18T07:52:22.772Z,75.54
2022-09-18T07:54:49.316Z,75.39
2022-09-18T07:57:15.603Z,75.51
2022-09-18T07:59:42.068Z,74.96
2022-09-18T08:02:10.691Z,74.51
2022-09-18T08:04:37.584Z,74.46
2022-09-18T08:07:04.531Z,74.44
2022-09-18T08:09:31.010Z,73.98
2022-09-18T08:11:57.956Z,73.93
2022-09-18T08:14:28.728Z,73.64
2022-09-18T08:16:55.664Z,73.48
2022-09-18T08:19:22.262Z,73.38
2022-09-18T08:21:49.091Z,72.82
2022-09-18T08:24:16.945Z,72.79
2022-09-18T08:26:44.571Z,72.90
2022-09-18T08:29:18.795Z,72.64
2022-09-18T08:31:47.205Z,72.52
2022-09-18T08:34:14.762Z,72.51
2022-09-18T08:36:42.059Z,72.50
2022-09-18T08:39:10.326Z,72.21
2022-09-18T08:42:07.762Z,71.13
2022-09-18T08:45:17.103Z,70.81
2022-09-18T08:47:51.144Z,70.58
2022-09-18T08:50:35.095Z,70.17
2022-09-18T08:53:20.888Z,70.20
2022-09-18T08:55:49.696Z,69.73
2022-09-18T08:58:23.132Z,69.60
2022-09-18T09:00:59.432Z,69.56
2022-09-18T09:04:00.384Z,69.33
2022-09-18T09:06:42.444Z,69.39
2022-09-18T09:09:32.202Z,69.42
2022-09-18T09:12:01.976Z,69.33
2022-09-18T09:15:31.821Z,69.41
2022-09-18T09:18:16.451Z,69.09
2022-09-18T09:21:11.673Z,69.18
2022-09-18T09:24:01.318Z,69.19
2022-09-18T09:26:34.219Z,68.42
2022-09-18T09:29:39.084Z,68.34
2022-09-18T09:32:27.976Z,68.35
2022-09-18T09:35:21.323Z,68.31
2022-09-18T09:37:48.625Z,68.72
2022-09-18T09:40:22.076Z,70.74
2022-09-18T09:43:00.605Z,71.56
2022-09-18T09:45:33.353Z,72.26
2022-09-18T09:48:32.253Z,72.91
2022-09-18T09:51:26.449Z,73.56
2022-09-18T09:54:24.031Z,73.69
2022-09-18T10:01:00.639Z,74.22
2022-09-18T10:04:02.975Z,74.83
2022-09-18T10:07:18.495Z,75.45
2022-09-18T10:10:12.420Z,75.80
2022-09-18T10:13:00.104Z,76.02
2022-09-18T10:15:41.713Z,76.01
2022-09-18T10:18:24.876Z,75.03
2022-09-18T10:22:00.594Z,75.01
2022-09-18T10:24:34.809Z,74.22
2022-09-18T10:27:17.553Z,73.46
2022-09-18T10:29:58.453Z,73.17
2022-09-18T10:32:58.443Z,73.36
2022-09-18T10:35:49.326Z,73.58
2022-09-18T10:38:30.031Z,73.86
2022-09-18T10:41:13.971Z,73.74
2022-09-18T10:44:15.003Z,72.75
2022-09-18T10:47:28.714Z,72.52
2022-09-18T10:49:59.088Z,72.23
2022-09-18T10:52:42.496Z,72.27
2022-09-18T10:55:13.852Z,72.19
2022-09-18T10:57:45.428Z,70.77
2022-09-18T11:00:13.354Z,71.38
2022-09-18T11:02:46.577Z,70.39
2022-09-18T11:05:47.593Z,69.37
2022-09-18T11:08:19.758Z,69.35
2022-09-18T11:10:55.855Z,69.09
2022-09-18T11:13:27.083Z,68.10
2022-09-18T11:15:59.078Z,68.14
2022-09-18T11:18:31.731Z,68.52
2022-09-18T11:21:08.939Z,67.88
2022-09-18T11:23:38.180Z,67.57
2022-09-18T11:26:35.676Z,67.52
2022-09-18T11:29:31.619Z,67.92
2022-09-18T11:32:06.775Z,68.16
2022-09-18T11:34:47.830Z,65.77
2022-09-18T11:37:31.069Z,64.47
2022-09-18T11:40:26.689Z,61.91
2022-09-18T11:42:55.152Z,61.32
2022-09-18T11:45:52.869Z,60.81
2022-09-18T11:48:42.014Z,60.03
2022-09-18T11:51:16.678Z,59.49
2022-09-18T11:54:00.450Z,59.77
2022-09-18T11:56:48.233Z,59.20
2022-09-18T11:59:43.519Z,60.48
2022-09-18T12:02:48.031Z,58.79
2022-09-18T12:05:28.091Z,58.55
2022-09-18T12:08:36.851Z,57.73
2022-09-18T12:12:24.537Z,56.92
2022-09-18T12:15:41.705Z,57.89
2022-09-18T12:18:33.875Z,57.00
2022-09-18T12:21:12.610Z,56.86
2022-09-18T12:23:40.564Z,56.76
2022-09-18T12:26:15.377Z,56.66
2022-09-18T12:29:12.549Z,55.18
2022-09-18T12:32:15.650Z,57.22
2022-09-18T12:35:13.761Z,56.59
2022-09-18T12:37:53.275Z,56.20
2022-09-18T12:40:49.140Z,55.58
2022-09-18T12:43:47.101Z,55.20
2022-09-18T12:46:41.039Z,54.18
2022-09-18T12:49:30.129Z,54.29
2022-09-18T12:52:18.521Z,55.17
2022-09-18T12:54:48.158Z,55.93
2022-09-18T12:57:43.812Z,56.20
2022-09-18T13:00:18.350Z,55.50
2022-09-18T13:03:13.851Z,55.24
2022-09-18T13:05:54.302Z,55.19
2022-09-18T13:08:33.192Z,54.88
2022-09-18T13:11:15.072Z,55.09
2022-09-18T13:13:58.749Z,56.19
2022-09-18T13:16:55.313Z,57.38
2022-09-18T13:19:28.491Z,55.31
2022-09-18T13:22:04.367Z,55.63
2022-09-18T13:25:57.786Z,55.93
2022-09-18T13:32:54.026Z,56.59
2022-09-18T13:36:16.831Z,57.91
2022-09-18T13:43:58.102Z,60.58
2022-09-18T13:46:50.544Z,60.65
2022-09-18T13:48:51.260Z,56.29
2022-09-18T13:49:26.006Z,59.13
2022-09-18T13:51:55.869Z,58.48
2022-09-18T13:54:29.833Z,58.11
2022-09-18T13:57:03.793Z,58.01
2022-09-18T14:00:26.685Z,57.16
2022-09-18T14:03:07.590Z,56.90
2022-09-18T14:05:44.097Z,55.88
2022-09-18T14:08:26.289Z,57.22
2022-09-18T14:11:14.922Z,56.33
2022-09-18T14:13:52.006Z,56.70
2022-09-18T14:16:23.310Z,56.95
2022-09-18T14:19:21.812Z,57.69
2022-09-18T14:21:52.032Z,56.09
2022-09-18T14:24:49.537Z,55.17
2022-09-18T14:27:56.879Z,53.75
2022-09-18T14:30:30.849Z,54.62
2022-09-18T14:33:11.101Z,54.81
2022-09-18T14:36:11.771Z,54.22
2022-09-18T14:38:41.309Z,54.84
2022-09-18T14:41:19.004Z,55.56
2022-09-18T14:44:01.184Z,55.21
2022-09-18T14:46:28.648Z,55.84
2022-09-18T14:48:56.078Z,55.66
2022-09-18T14:51:27.777Z,55.93
2022-09-18T14:53:57.507Z,55.75
2022-09-18T14:56:38.516Z,55.48
2022-09-18T14:59:16.281Z,54.70
2022-09-18T15:01:45.006Z,55.72
2022-09-18T15:04:19.702Z,56.37
2022-09-18T15:06:51.740Z,56.82
2022-09-18T15:09:27.197Z,56.12
2022-09-18T15:12:03.192Z,56.06
2022-09-18T15:14:45.390Z,56.52
2022-09-18T15:17:42.585Z,56.50
2022-09-18T15:20:25.860Z,56.21
2022-09-18T15:22:56.067Z,56.79
2022-09-18T15:25:37.062Z,56.69
2022-09-18T15:28:06.434Z,57.24
2022-09-18T15:30:37.562Z,56.49
2022-09-18T15:33:21.682Z,56.47
2022-09-18T15:35:52.858Z,56.80
2022-09-18T15:38:26.378Z,57.95
2022-09-18T15:40:56.835Z,61.27
2022-09-18T15:43:29.190Z,63.41
2022-09-18T15:46:05.886Z,63.34
2022-09-18T15:48:38.964Z,62.80
2022-09-18T15:51:15.938Z,62.43
2022-09-18T15:54:13.770Z,64.61
2022-09-18T15:56:59.007Z,65.73
2022-09-18T15:59:32.635Z,66.97
2022-09-18T16:02:07.567Z,67.60
2022-09-18T16:04:35.538Z,68.17
2022-09-18T16:07:57.268Z,68.44
2022-09-18T16:13:56.010Z,68.34
2022-09-18T16:16:29.426Z,68.06
2022-09-18T16:19:10.813Z,68.12
2022-09-18T16:21:44.604Z,68.36
2022-09-18T16:24:31.169Z,68.32
2022-09-18T16:27:07.474Z,67.80
2022-09-18T16:29:35.203Z,67.26
2022-09-18T16:32:02.156Z,67.08
2022-09-18T16:34:30.000Z,67.25
2022-09-18T16:36:56.862Z,67.16
2022-09-18T16:39:26.571Z,67.10
2022-09-18T16:42:01.443Z,67.13
2022-09-18T16:44:33.024Z,67.10
2022-09-18T16:47:11.585Z,67.35
2022-09-18T16:49:55.933Z,67.76
2022-09-18T16:52:35.485Z,68.06
2022-09-18T16:55:03.420Z,68.15
2022-09-18T16:57:31.135Z,68.24
2022-09-18T17:01:03.811Z,68.41
2022-09-18T17:03:59.909Z,68.78
2022-09-18T17:06:26.842Z,68.96
2022-09-18T17:08:55.874Z,69.11
2022-09-18T17:11:46.178Z,69.17
2022-09-18T17:14:13.086Z,69.35
2022-09-18T17:16:48.195Z,69.67
2022-09-18T17:19:15.513Z,69.86
2022-09-18T17:21:45.196Z,69.81
2022-09-18T17:24:12.922Z,69.71
2022-09-18T17:26:41.329Z,69.70
2022-09-18T17:29:11.527Z,69.57
2022-09-18T17:31:40.397Z,69.65
2022-09-18T17:34:07.327Z,69.81
2022-09-18T17:36:36.385Z,70.21
2022-09-18T17:39:04.807Z,70.29
2022-09-18T17:41:33.233Z,70.33
2022-09-18T17:44:00.647Z,70.34
2022-09-18T17:46:27.371Z,70.41
2022-09-18T17:48:56.234Z,70.47
2022-09-18T17:51:28.177Z,70.63
2022-09-18T17:57:49.337Z,70.76
2022-09-18T18:00:18.652Z,70.82
2022-09-18T18:02:46.800Z,70.98
2022-09-18T18:05:14.446Z,71.14
2022-09-18T18:07:41.148Z,71.34
2022-09-18T18:10:08.585Z,71.26
2022-09-18T18:12:36.475Z,71.45
2022-09-18T18:15:04.651Z,71.50
2022-09-18T18:17:35.642Z,71.70
2022-09-18T18:20:05.153Z,71.81
2022-09-18T18:22:32.194Z,71.98
2022-09-18T18:25:01.230Z,72.18
2022-09-18T18:27:33.091Z,72.40
2022-09-18T18:30:03.143Z,72.47
2022-09-18T18:32:34.435Z,72.50
2022-09-18T18:35:09.417Z,72.48
2022-09-18T18:37:47.972Z,72.47
2022-09-18T18:40:15.351Z,72.47
2022-09-18T18:42:42.250Z,72.34
2022-09-18T18:45:10.425Z,72.24
2022-09-18T18:47:38.299Z,72.27
2022-09-18T18:50:06.341Z,72.35
2022-09-18T18:52:32.934Z,72.48
2022-09-18T18:55:04.003Z,72.66
2022-09-18T18:57:30.879Z,72.68
2022-09-18T18:59:57.739Z,72.70
2022-09-18T19:02:24.415Z,72.74
2022-09-18T19:04:52.587Z,72.96
2022-09-18T19:07:19.940Z,73.23
2022-09-18T19:09:46.383Z,73.30
2022-09-18T19:12:12.921Z,73.38
2022-09-18T19:14:42.231Z,73.47
2022-09-18T19:17:18.169Z,73.54
2022-09-18T19:19:55.605Z,73.64
2022-09-18T19:22:26.212Z,73.75
2022-09-18T19:24:53.444Z,73.81
2022-09-18T19:27:24.413Z,73.89
2022-09-18T19:30:02.955Z,73.99
2022-09-18T19:32:37.109Z,74.10
2022-09-18T19:35:08.121Z,74.19
2022-09-18T19:37:35.955Z,74.34
2022-09-18T19:40:03.768Z,74.48
2022-09-18T19:42:31.490Z,74.77
2022-09-18T19:45:01.814Z,75.09
2022-09-18T19:47:33.365Z,75.29
2022-09-18T19:50:02.819Z,75.40
2022-09-18T19:52:29.655Z,75.46
2022-09-18T19:54:58.403Z,75.54
2022-09-18T19:57:27.380Z,75.67
2022-09-18T19:59:56.634Z,75.77
2022-09-18T20:02:26.673Z,75.85
2022-09-18T20:04:55.741Z,75.92
2022-09-18T20:07:24.161Z,76.00
2022-09-18T20:09:51.137Z,76.04
2022-09-18T20:12:20.002Z,76.06
2022-09-18T20:14:47.170Z,76.05
2022-09-18T20:17:15.432Z,76.07
2022-09-18T20:19:42.404Z,75.99
2022-09-18T20:22:09.106Z,75.99
2022-09-18T20:24:35.450Z,75.92
2022-09-18T20:27:01.907Z,75.86
2022-09-18T20:29:28.656Z,75.82
2022-09-18T20:31:55.370Z,75.80
2022-09-18T20:34:22.790Z,75.75
2022-09-18T20:36:51.382Z,75.71
2022-09-18T20:39:18.277Z,75.75
2022-09-18T20:41:44.697Z,75.83
2022-09-18T20:44:11.198Z,75.91
2022-09-18T20:46:39.840Z,75.89
2022-09-18T20:49:07.252Z,75.90
2022-09-18T20:51:35.315Z,75.93
2022-09-18T20:54:04.489Z,75.90
2022-09-18T20:56:43.845Z,75.95
2022-09-18T20:59:12.887Z,76.04
2022-09-18T21:01:41.251Z,76.12
2022-09-18T21:04:16.514Z,76.23
2022-09-18T21:06:55.385Z,76.37
2022-09-18T21:09:25.879Z,76.48
2022-09-18T21:11:52.384Z,76.67
2022-09-18T21:14:20.451Z,76.77
2022-09-18T21:16:47.499Z,76.91
2022-09-18T21:19:18.709Z,77.00
2022-09-18T21:21:47.169Z,77.08
2022-09-18T21:24:18.492Z,77.09
2022-09-18T21:26:47.714Z,77.08
2022-09-18T21:29:24.089Z,77.05
2022-09-18T21:32:01.305Z,77.04
2022-09-18T21:34:36.943Z,77.07
2022-09-18T21:37:17.630Z,77.14
2022-09-18T21:40:13.577Z,77.27
2022-09-18T21:42:47.021Z,77.44
2022-09-18T21:45:23.260Z,77.52
2022-09-18T21:47:50.121Z,77.62
2022-09-18T21:50:28.377Z,77.68
2022-09-18T21:52:55.029Z,77.57
2022-09-18T21:55:58.791Z,77.59
2022-09-18T21:58:55.743Z,77.55
2022-09-18T22:02:09.636Z,77.57
2022-09-18T22:04:55.320Z,77.62
2022-09-18T22:08:07.667Z,77.81
2022-09-18T22:10:39.637Z,77.95
2022-09-18T22:13:06.172Z,78.06
2022-09-18T22:15:32.826Z,78.08
2022-09-18T22:17:59.361Z,78.02
2022-09-18T22:20:25.841Z,77.94
2022-09-18T22:22:52.313Z,77.96
2022-09-18T22:25:19.985Z,78.01
2022-09-18T22:27:46.513Z,78.04
2022-09-18T22:30:14.214Z,78.05
2022-09-18T22:32:40.914Z,78.07
2022-09-18T22:35:08.378Z,78.14
2022-09-18T22:37:35.211Z,78.17
2022-09-18T22:40:02.179Z,78.22
2022-09-18T22:42:29.669Z,78.24
2022-09-18T22:44:56.064Z,78.28
2022-09-18T22:47:22.767Z,78.31
2022-09-18T22:49:49.115Z,78.27
2022-09-18T22:52:22.224Z,78.29
2022-09-18T22:54:48.606Z,78.33
2022-09-18T22:57:15.494Z,78.33
2022-09-18T22:59:41.841Z,78.40
2022-09-18T23:02:08.386Z,78.40
2022-09-18T23:04:36.098Z,78.40
2022-09-18T23:07:03.191Z,78.42
2022-09-18T23:09:29.934Z,78.50
2022-09-18T23:11:57.395Z,78.52
2022-09-18T23:14:27.975Z,78.57
2022-09-18T23:16:56.510Z,78.61
2022-09-18T23:19:29.271Z,78.64
2022-09-18T23:22:00.640Z,78.63
2022-09-18T23:24:27.432Z,78.63
2022-09-18T23:26:57.017Z,78.65
2022-09-18T23:29:25.256Z,78.64
2022-09-18T23:31:54.513Z,78.68
2022-09-18T23:34:23.695Z,78.73
2022-09-18T23:36:59.489Z,78.72
2022-09-18T23:39:33.207Z,78.67
2022-09-18T23:42:01.565Z,78.65
2022-09-18T23:44:30.274Z,78.69
2022-09-18T23:46:57.259Z,78.80
2022-09-18T23:49:23.894Z,78.98
2022-09-18T23:51:53.339Z,79.22
2022-09-18T23:54:23.028Z,79.39
2022-09-18T23:56:49.859Z,79.50
2022-09-18T23:59:22.582Z,79.57
